createdAt,value
2018-12-29T00:01:27.405Z,102664.91
2018-12-29T00:03:55.695Z,102664.91
2018-12-29T00:06:23.947Z,102662.78
2018-12-29T00:08:52.237Z,102673.92
2018-12-29T00:11:20.526Z,102673.92
2018-12-29T00:13:48.881Z,102668.17
2018-12-29T00:16:17.128Z,102668.17
2018-12-29T00:18:45.393Z,102669.64
2018-12-29T00:21:13.711Z,102675.09
2018-12-29T00:23:42.028Z,102680.47
2018-12-29T00:26:10.972Z,102686.91
2018-12-29T00:28:39.287Z,102689.59
2018-12-29T00:31:07.555Z,102684.11
2018-12-29T00:33:35.916Z,102690.44
2018-12-29T00:36:04.387Z,102679.91
2018-12-29T00:38:32.681Z,102687.20
2018-12-29T00:41:00.931Z,102687.20
2018-12-29T00:43:29.238Z,102688.48
2018-12-29T00:45:57.519Z,102683.70
2018-12-29T00:48:25.817Z,102679.67
2018-12-29T00:50:54.082Z,102681.31
2018-12-29T00:53:22.331Z,102680.17
2018-12-29T00:55:50.662Z,102699.32
2018-12-29T00:58:18.932Z,102698.58
2018-12-29T01:00:47.225Z,102698.58
2018-12-29T01:03:15.682Z,102701.20
2018-12-29T01:05:43.928Z,102701.20
2018-12-29T01:08:12.218Z,102704.47
2018-12-29T01:10:40.523Z,102702.02
2018-12-29T01:13:08.812Z,102712.10
2018-12-29T01:15:37.167Z,102712.10
2018-12-29T01:18:05.416Z,102713.95
2018-12-29T01:20:33.666Z,102708.23
2018-12-29T01:23:02.009Z,102701.50
2018-12-29T01:25:30.303Z,102703.73
2018-12-29T01:27:58.561Z,102703.73
2018-12-29T01:30:26.872Z,102701.09
2018-12-29T01:32:55.221Z,102717.75
2018-12-29T01:35:23.481Z,102717.75
2018-12-29T01:37:51.788Z,102720.41
2018-12-29T01:40:20.189Z,102728.02
2018-12-29T01:42:48.453Z,102719.95
2018-12-29T01:45:17.589Z,102721.36
2018-12-29T01:47:46.998Z,102722.83
2018-12-29T01:50:15.628Z,102725.52
2018-12-29T01:52:43.893Z,102714.02
2018-12-29T01:55:12.176Z,102724.00
2018-12-29T01:57:40.451Z,102724.00
2018-12-29T02:00:08.825Z,102728.85
2018-12-29T02:02:37.101Z,102735.08
2018-12-29T02:05:05.722Z,102727.51
2018-12-29T02:07:34.199Z,102730.27
2018-12-29T02:10:02.491Z,102731.55
2018-12-29T02:12:30.783Z,102724.06
2018-12-29T02:14:59.077Z,102724.06
2018-12-29T02:17:27.393Z,102726.33
2018-12-29T02:19:55.674Z,102722.42
2018-12-29T02:22:23.956Z,102717.51
2018-12-29T02:24:52.218Z,102720.09
2018-12-29T02:27:20.606Z,102715.98
2018-12-29T02:29:48.909Z,102721.31
2018-12-29T02:32:17.154Z,102720.20
2018-12-29T02:34:45.618Z,102718.86
2018-12-29T02:37:13.871Z,102719.13
2018-12-29T02:39:42.285Z,102728.23
2018-12-29T02:42:10.561Z,102713.53
2018-12-29T02:44:39.011Z,102734.67
2018-12-29T02:47:07.271Z,102720.16
2018-12-29T02:49:35.549Z,102726.92
2018-12-29T02:52:03.870Z,102726.92
2018-12-29T02:54:32.167Z,102717.80
2018-12-29T02:57:00.436Z,102724.30
2018-12-29T02:59:28.742Z,102727.66
2018-12-29T03:01:57.036Z,102727.34
2018-12-29T03:04:25.291Z,102733.34
2018-12-29T03:06:53.562Z,102728.45
2018-12-29T03:09:21.816Z,102719.39
2018-12-29T03:11:50.100Z,102722.89
2018-12-29T03:14:18.417Z,102713.02
2018-12-29T03:16:46.672Z,102713.53
2018-12-29T03:19:14.937Z,102702.25
2018-12-29T03:21:43.224Z,102704.16
2018-12-29T03:24:11.539Z,102707.16
2018-12-29T03:26:39.791Z,102697.19
2018-12-29T03:29:08.096Z,102697.79
2018-12-29T03:31:36.374Z,102689.70
2018-12-29T03:34:04.631Z,102684.62
2018-12-29T03:36:32.954Z,102685.42
2018-12-29T03:39:01.209Z,102683.03
2018-12-29T03:41:29.498Z,102673.36
2018-12-29T03:43:57.883Z,102672.31
2018-12-29T03:46:26.145Z,102675.06
2018-12-29T03:48:54.415Z,102669.14
2018-12-29T03:51:22.670Z,102663.50
2018-12-29T03:53:51.526Z,102665.70
2018-12-29T03:56:19.785Z,102663.86
2018-12-29T03:58:48.181Z,102663.33
2018-12-29T04:01:16.488Z,102660.36
2018-12-29T04:03:44.741Z,102661.47
2018-12-29T04:06:13.022Z,102657.19
2018-12-29T04:08:42.974Z,102650.20
2018-12-29T04:11:11.279Z,102652.66
2018-12-29T04:13:39.778Z,102650.50
2018-12-29T04:16:08.061Z,102654.06
2018-12-29T04:18:36.729Z,102650.62
2018-12-29T04:21:04.993Z,102653.55
2018-12-29T04:23:33.273Z,102645.52
2018-12-29T04:26:01.523Z,102643.16
2018-12-29T04:28:29.866Z,102645.84
2018-12-29T04:30:58.114Z,102639.16
2018-12-29T04:33:26.403Z,102639.77
2018-12-29T04:35:54.684Z,102639.52
2018-12-29T04:38:23.073Z,102634.63
2018-12-29T04:40:51.361Z,102630.44
2018-12-29T04:43:19.700Z,102625.84
2018-12-29T04:45:47.986Z,102625.91
2018-12-29T04:48:16.255Z,102632.40
2018-12-29T04:50:44.701Z,102621.07
2018-12-29T04:53:13.051Z,102627.36
2018-12-29T04:55:41.297Z,102639.25
2018-12-29T04:58:09.657Z,102638.59
2018-12-29T05:00:37.915Z,102637.36
2018-12-29T05:03:06.524Z,102637.41
2018-12-29T05:05:35.476Z,102641.50
2018-12-29T05:08:03.779Z,102642.09
2018-12-29T05:10:32.035Z,102634.02
2018-12-29T05:13:00.298Z,102636.16
2018-12-29T05:15:28.631Z,102635.41
2018-12-29T05:17:56.899Z,102642.42
2018-12-29T05:20:25.263Z,102646.25
2018-12-29T05:22:54.218Z,102638.67
2018-12-29T05:25:22.547Z,102641.42
2018-12-29T05:27:50.842Z,102636.02
2018-12-29T05:30:19.102Z,102637.91
2018-12-29T05:32:47.371Z,102634.16
2018-12-29T05:35:15.795Z,102637.67
2018-12-29T05:37:44.091Z,102633.13
2018-12-29T05:40:12.347Z,102634.73
2018-12-29T05:42:40.627Z,102638.02
2018-12-29T05:45:08.894Z,102646.16
2018-12-29T05:47:37.228Z,102644.27
2018-12-29T05:50:05.947Z,102651.88
2018-12-29T05:52:34.382Z,102650.23
2018-12-29T05:55:02.642Z,102654.56
2018-12-29T05:57:30.906Z,102654.32
2018-12-29T05:59:59.289Z,102654.63
2018-12-29T06:02:27.557Z,102654.16
2018-12-29T06:04:55.817Z,102659.27
2018-12-29T06:07:24.149Z,102655.72
2018-12-29T06:09:52.407Z,102653.91
2018-12-29T06:12:20.767Z,102644.73
2018-12-29T06:14:50.525Z,102648.78
2018-12-29T06:17:18.782Z,102655.53
2018-12-29T06:19:47.070Z,102659.06
2018-12-29T06:22:15.423Z,102658.52
2018-12-29T06:24:43.663Z,102654.18
2018-12-29T06:27:11.927Z,102656.07
2018-12-29T06:29:40.207Z,102659.06
2018-12-29T06:32:08.469Z,102656.71
2018-12-29T06:34:36.916Z,102664.22
2018-12-29T06:37:05.174Z,102656.37
2018-12-29T06:39:33.443Z,102664.51
2018-12-29T06:42:01.749Z,102658.02
2018-12-29T06:44:30.007Z,102658.52
2018-12-29T06:46:58.313Z,102659.36
2018-12-29T06:49:26.617Z,102655.83
2018-12-29T06:51:54.905Z,102656.07
2018-12-29T06:54:23.166Z,102663.45
2018-12-29T06:56:51.529Z,102663.97
2018-12-29T06:59:19.812Z,102660.52
2018-12-29T07:01:48.067Z,102668.36
2018-12-29T07:04:16.397Z,102669.17
2018-12-29T07:06:44.656Z,102671.30
2018-12-29T07:09:12.998Z,102664.02
2018-12-29T07:11:41.278Z,102673.52
2018-12-29T07:14:09.590Z,102666.22
2018-12-29T07:16:42.279Z,102664.07
2018-12-29T07:19:07.891Z,102659.22
2018-12-29T07:21:36.856Z,102652.73
2018-12-29T07:24:05.166Z,102653.87
2018-12-29T07:26:33.443Z,102656.88
2018-12-29T07:29:01.719Z,102646.63
2018-12-29T07:31:30.103Z,102642.29
2018-12-29T07:33:58.411Z,102641.53
2018-12-29T07:36:26.711Z,102637.80
2018-12-29T07:38:55.129Z,102633.23
2018-12-29T07:41:23.378Z,102625.14
2018-12-29T07:43:51.644Z,102624.09
2018-12-29T07:46:20.035Z,102623.55
2018-12-29T07:48:48.301Z,102614.86
2018-12-29T07:51:16.587Z,102614.34
2018-12-29T07:53:44.912Z,102624.89
2018-12-29T07:56:14.859Z,102621.41
2018-12-29T07:58:43.110Z,102614.91
2018-12-29T08:01:11.405Z,102608.20
2018-12-29T08:03:39.758Z,102607.41
2018-12-29T08:06:08.067Z,102605.55
2018-12-29T08:08:36.327Z,102604.75
2018-12-29T08:11:04.587Z,102602.05
2018-12-29T08:13:33.027Z,102602.85
2018-12-29T08:16:01.294Z,102598.05
2018-12-29T08:18:29.572Z,102596.96
2018-12-29T08:20:57.893Z,102593.50
2018-12-29T08:23:26.179Z,102590.75
2018-12-29T08:25:54.438Z,102590.71
2018-12-29T08:28:22.722Z,102586.41
2018-12-29T08:30:51.011Z,102584.59
2018-12-29T08:33:19.441Z,102587.56
2018-12-29T08:35:47.705Z,102582.20
2018-12-29T08:38:15.996Z,102584.39
2018-12-29T08:40:44.351Z,102576.55
2018-12-29T08:43:12.640Z,102573.84
2018-12-29T08:45:40.889Z,102579.80
2018-12-29T08:48:09.176Z,102582.80
2018-12-29T08:50:37.485Z,102579.89
2018-12-29T08:53:05.759Z,102570.15
2018-12-29T08:55:36.956Z,102557.23
2018-12-29T08:58:05.258Z,102553.74
2018-12-29T09:00:33.643Z,102555.09
2018-12-29T09:03:02.182Z,102544.34
2018-12-29T09:05:30.479Z,102536.83
2018-12-29T09:07:59.156Z,102529.53
2018-12-29T09:10:27.469Z,102532.78
2018-12-29T09:12:55.776Z,102528.44
2018-12-29T09:15:24.027Z,102524.64
2018-12-29T09:17:52.333Z,102517.09
2018-12-29T09:20:20.611Z,102503.41
2018-12-29T09:22:48.908Z,102522.78
2018-12-29T09:25:17.227Z,102518.48
2018-12-29T09:27:45.492Z,102508.52
2018-12-29T09:30:13.762Z,102509.83
2018-12-29T09:32:42.322Z,102502.25
2018-12-29T09:35:10.575Z,102496.80
2018-12-29T09:37:38.852Z,102499.25
2018-12-29T09:40:07.102Z,102504.89
2018-12-29T09:42:35.420Z,102498.95
2018-12-29T09:45:03.734Z,102500.84
2018-12-29T09:47:32.044Z,102505.06
2018-12-29T09:50:00.406Z,102505.33
2018-12-29T09:52:28.674Z,102508.86
2018-12-29T09:54:56.977Z,102510.77
2018-12-29T09:57:25.265Z,102515.91
2018-12-29T09:59:53.548Z,102510.30
2018-12-29T10:02:21.823Z,102503.81
2018-12-29T10:04:50.078Z,102483.31
2018-12-29T10:07:18.431Z,102474.91
2018-12-29T10:09:46.687Z,102475.20
2018-12-29T10:12:14.947Z,102481.41
2018-12-29T10:14:43.268Z,102481.41
2018-12-29T10:17:11.691Z,102480.34
2018-12-29T10:19:39.951Z,102484.48
2018-12-29T10:22:08.212Z,102479.12
2018-12-29T10:24:36.539Z,102472.92
2018-12-29T10:27:04.788Z,102457.30
2018-12-29T10:29:33.072Z,102444.86
2018-12-29T10:32:01.349Z,102442.23
2018-12-29T10:34:29.639Z,102433.05
2018-12-29T10:36:57.885Z,102425.27
2018-12-29T10:39:26.212Z,102421.83
2018-12-29T10:41:54.491Z,102420.97
2018-12-29T10:44:22.799Z,102417.17
2018-12-29T10:46:51.097Z,102423.98
2018-12-29T10:49:19.364Z,102430.23
2018-12-29T10:51:47.653Z,102435.38
2018-12-29T10:54:15.943Z,102417.27
2018-12-29T10:56:44.311Z,102407.82
2018-12-29T10:59:12.632Z,102402.45
2018-12-29T11:01:41.544Z,102388.18
2018-12-29T11:04:09.883Z,102365.52
2018-12-29T11:06:38.111Z,102345.84
2018-12-29T11:09:06.773Z,102352.33
2018-12-29T11:11:35.083Z,102352.88
2018-12-29T11:14:03.370Z,102360.43
2018-12-29T11:16:31.674Z,102380.95
2018-12-29T11:18:59.927Z,102375.25
2018-12-29T11:21:28.245Z,102359.34
2018-12-29T11:23:56.497Z,102336.67
2018-12-29T11:26:24.750Z,102322.30
2018-12-29T11:28:53.136Z,102335.55
2018-12-29T11:31:21.402Z,102338.53
2018-12-29T11:33:49.663Z,102344.77
2018-12-29T11:36:18.054Z,102329.60
2018-12-29T11:38:46.594Z,102314.78
2018-12-29T11:41:14.847Z,102301.30
2018-12-29T11:43:43.177Z,102328.56
2018-12-29T11:46:11.423Z,102358.05
2018-12-29T11:48:39.703Z,102359.66
2018-12-29T11:51:07.984Z,102336.73
2018-12-29T11:53:36.562Z,102339.40
2018-12-29T11:56:04.857Z,102332.91
2018-12-29T11:58:33.214Z,102329.45
2018-12-29T12:01:01.589Z,102323.52
2018-12-29T12:03:29.850Z,102314.37
2018-12-29T12:05:58.111Z,102301.37
2018-12-29T12:08:26.544Z,102297.05
2018-12-29T12:10:55.127Z,102303.28
2018-12-29T12:13:23.423Z,102292.77
2018-12-29T12:15:51.755Z,102268.97
2018-12-29T12:18:20.007Z,102250.58
2018-12-29T12:20:48.292Z,102238.73
2018-12-29T12:23:17.467Z,102229.52
2018-12-29T12:25:45.725Z,102214.64
2018-12-29T12:28:13.979Z,102202.72
2018-12-29T12:30:42.286Z,102196.47
2018-12-29T12:33:11.655Z,102205.33
2018-12-29T12:35:40.006Z,102206.66
2018-12-29T12:38:08.532Z,102188.81
2018-12-29T12:40:37.097Z,102162.85
2018-12-29T12:43:05.428Z,102154.98
2018-12-29T12:45:33.677Z,102156.62
2018-12-29T12:48:05.138Z,102155.55
2018-12-29T12:50:32.254Z,102151.27
2018-12-29T12:53:00.534Z,102142.60
2018-12-29T12:55:28.800Z,102134.71
2018-12-29T12:57:57.236Z,102134.73
2018-12-29T13:00:25.895Z,102129.36
2018-12-29T13:02:54.562Z,102116.41
2018-12-29T13:05:22.846Z,102109.97
2018-12-29T13:07:51.888Z,102102.13
2018-12-29T13:10:20.362Z,102100.55
2018-12-29T13:12:48.675Z,102089.98
2018-12-29T13:15:16.987Z,102092.91
2018-12-29T13:17:45.424Z,102078.06
2018-12-29T13:20:13.680Z,102086.21
2018-12-29T13:22:42.313Z,102068.13
2018-12-29T13:25:10.595Z,102065.09
2018-12-29T13:27:38.977Z,102055.64
2018-12-29T13:30:07.231Z,102043.20
2018-12-29T13:32:35.496Z,102045.62
2018-12-29T13:35:04.209Z,102061.59
2018-12-29T13:37:32.459Z,102052.89
2018-12-29T13:40:00.846Z,102052.89
2018-12-29T13:42:29.102Z,102050.48
2018-12-29T13:44:57.371Z,102056.66
2018-12-29T13:47:25.760Z,102064.76
2018-12-29T13:49:54.012Z,102096.05
2018-12-29T13:52:22.397Z,102090.67
2018-12-29T13:54:51.879Z,102093.12
2018-12-29T13:57:20.088Z,102089.34
2018-12-29T13:59:48.889Z,102095.31
2018-12-29T14:02:17.141Z,102109.59
2018-12-29T14:04:45.394Z,102093.15
2018-12-29T14:07:13.677Z,102094.78
2018-12-29T14:09:41.935Z,102082.61
2018-12-29T14:12:10.524Z,102068.88
2018-12-29T14:14:38.785Z,102064.30
2018-12-29T14:17:07.069Z,102057.27
2018-12-29T14:19:35.456Z,102055.38
2018-12-29T14:22:03.757Z,102047.27
2018-12-29T14:24:32.298Z,102038.66
2018-12-29T14:27:00.606Z,102039.52
2018-12-29T14:29:28.864Z,102028.97
2018-12-29T14:31:57.183Z,102023.84
2018-12-29T14:34:25.572Z,102006.31
2018-12-29T14:36:54.258Z,102002.52
2018-12-29T14:39:22.597Z,102000.64
2018-12-29T14:41:51.027Z,101998.41
2018-12-29T14:44:19.344Z,102001.17
2018-12-29T14:46:47.595Z,101991.20
2018-12-29T14:49:16.151Z,101980.14
2018-12-29T14:51:44.463Z,101973.39
2018-12-29T14:54:12.875Z,101985.81
2018-12-29T14:56:41.178Z,101986.89
2018-12-29T14:59:09.418Z,101981.77
2018-12-29T15:01:38.231Z,101987.71
2018-12-29T15:04:06.513Z,101998.27
2018-12-29T15:06:34.794Z,101991.52
2018-12-29T15:09:03.085Z,101991.81
2018-12-29T15:11:31.407Z,101994.79
2018-12-29T15:13:59.720Z,101974.55
2018-12-29T15:16:28.007Z,101969.41
2018-12-29T15:18:56.825Z,101968.36
2018-12-29T15:21:25.490Z,101968.36
2018-12-29T15:23:53.823Z,101972.69
2018-12-29T15:26:22.090Z,101967.56
2018-12-29T15:28:51.029Z,101977.57
2018-12-29T15:31:20.192Z,101980.00
2018-12-29T15:33:48.514Z,101980.58
2018-12-29T15:36:16.846Z,101978.66
2018-12-29T15:38:45.211Z,101973.02
2018-12-29T15:41:13.486Z,101987.61
2018-12-29T15:43:41.889Z,101979.50
2018-12-29T15:46:10.142Z,101986.26
2018-12-29T15:48:38.394Z,101973.83
2018-12-29T15:51:06.734Z,101974.67
2018-12-29T15:53:35.010Z,101974.41
2018-12-29T15:56:03.316Z,101976.30
2018-12-29T15:58:31.582Z,101967.41
2018-12-29T16:00:59.900Z,101964.72
2018-12-29T16:03:28.258Z,101955.26
2018-12-29T16:05:57.007Z,101962.03
2018-12-29T16:08:25.485Z,101952.03
2018-12-29T16:10:53.779Z,101947.19
2018-12-29T16:13:22.076Z,101941.78
2018-12-29T16:15:50.352Z,101935.00
2018-12-29T16:18:18.907Z,101950.71
2018-12-29T16:20:55.304Z,101945.02
2018-12-29T16:23:17.197Z,101951.80
2018-12-29T16:25:45.768Z,101946.67
2018-12-29T16:28:14.034Z,101931.25
2018-12-29T16:30:42.303Z,101923.95
2018-12-29T16:33:10.584Z,101920.45
2018-12-29T16:35:38.856Z,101914.49
2018-12-29T16:38:07.264Z,101908.56
2018-12-29T16:40:35.563Z,101903.97
2018-12-29T16:43:03.832Z,101900.70
2018-12-29T16:45:32.192Z,101898.28
2018-12-29T16:48:00.451Z,101893.12
2018-12-29T16:50:28.699Z,101898.02
2018-12-29T16:52:57.008Z,101902.08
2018-12-29T16:55:25.251Z,101889.07
2018-12-29T16:57:53.510Z,101895.56
2018-12-29T17:00:21.794Z,101903.67
2018-12-29T17:02:50.063Z,101900.97
2018-12-29T17:05:18.379Z,101891.50
2018-12-29T17:07:46.675Z,101892.30
2018-12-29T17:10:15.082Z,101883.94
2018-12-29T17:12:43.354Z,101885.80
2018-12-29T17:15:11.874Z,101898.81
2018-12-29T17:17:40.160Z,101883.66
2018-12-29T17:20:08.590Z,101878.48
2018-12-29T17:22:37.142Z,101874.42
2018-12-29T17:25:05.475Z,101869.02
2018-12-29T17:27:33.772Z,101876.61
2018-12-29T17:30:02.025Z,101867.66
2018-12-29T17:32:30.378Z,101875.25
2018-12-29T17:34:58.672Z,101870.36
2018-12-29T17:37:26.961Z,101868.48
2018-12-29T17:39:55.346Z,101870.91
2018-12-29T17:42:23.787Z,101864.93
2018-12-29T17:44:52.064Z,101864.66
2018-12-29T17:47:20.337Z,101859.00
2018-12-29T17:49:48.779Z,101870.07
2018-12-29T17:52:17.020Z,101872.22
2018-12-29T17:54:45.309Z,101883.33
2018-12-29T17:57:13.610Z,101879.27
2018-12-29T17:59:41.890Z,101882.80
2018-12-29T18:02:10.261Z,101879.27
2018-12-29T18:04:38.525Z,101878.98
2018-12-29T18:07:06.805Z,101889.80
2018-12-29T18:09:35.059Z,101892.27
2018-12-29T18:12:03.816Z,101894.98
2018-12-29T18:14:32.092Z,101897.69
2018-12-29T18:17:00.374Z,101896.86
2018-12-29T18:19:30.668Z,101897.98
2018-12-29T18:21:59.593Z,101903.12
2018-12-29T18:24:27.925Z,101907.18
2018-12-29T18:26:56.265Z,101922.89
2018-12-29T18:29:24.562Z,101929.65
2018-12-29T18:31:53.229Z,101942.09
2018-12-29T18:34:21.611Z,101939.13
2018-12-29T18:36:49.863Z,101963.18
2018-12-29T18:39:18.444Z,101962.89
2018-12-29T18:41:46.716Z,101959.09
2018-12-29T18:44:15.048Z,101962.05
2018-12-29T18:46:43.347Z,101979.09
2018-12-29T18:49:11.672Z,101963.64
2018-12-29T18:51:39.953Z,101981.45
2018-12-29T18:54:08.275Z,101974.16
2018-12-29T18:56:36.557Z,101951.17
2018-12-29T18:59:04.828Z,101961.95
2018-12-29T19:01:33.115Z,101967.61
2018-12-29T19:04:01.477Z,101960.33
2018-12-29T19:06:29.782Z,101971.09
2018-12-29T19:08:58.080Z,101965.97
2018-12-29T19:11:26.627Z,101962.41
2018-12-29T19:13:55.109Z,101968.36
2018-12-29T19:16:23.347Z,101959.95
2018-12-29T19:18:51.636Z,101973.22
2018-12-29T19:21:42.358Z,101968.33
2018-12-29T19:23:50.433Z,101962.94
2018-12-29T19:26:19.033Z,101960.78
2018-12-29T19:28:47.624Z,101957.80
2018-12-29T19:31:16.180Z,101969.66
2018-12-29T19:33:44.475Z,101960.17
2018-12-29T19:36:12.792Z,101954.77
2018-12-29T19:38:41.053Z,101960.67
2018-12-29T19:41:09.766Z,101965.56
2018-12-29T19:43:38.031Z,101968.23
2018-12-29T19:46:06.796Z,101961.14
2018-12-29T19:48:35.197Z,101954.61
2018-12-29T19:51:03.476Z,101952.50
2018-12-29T19:53:32.202Z,101950.28
2018-12-29T19:56:00.547Z,101944.90
2018-12-29T19:58:29.761Z,101945.97
2018-12-29T20:00:58.080Z,101949.20
2018-12-29T20:03:26.446Z,101939.70
2018-12-29T20:05:54.832Z,101937.57
2018-12-29T20:08:23.104Z,101938.38
2018-12-29T20:10:51.606Z,101945.98
2018-12-29T20:13:19.916Z,101936.25
2018-12-29T20:15:48.246Z,101946.20
2018-12-29T20:18:16.597Z,101931.62
2018-12-29T20:20:44.910Z,101930.57
2018-12-29T20:23:13.624Z,101950.53
2018-12-29T20:25:41.989Z,101946.77
2018-12-29T20:28:10.280Z,101947.86
2018-12-29T20:30:38.926Z,101943.27
2018-12-29T20:33:07.374Z,101947.58
2018-12-29T20:35:35.728Z,101953.25
2018-12-29T20:38:04.041Z,101957.31
2018-12-29T20:40:32.363Z,101956.00
2018-12-29T20:43:01.234Z,101950.83
2018-12-29T20:45:29.590Z,101953.84
2018-12-29T20:47:58.188Z,101958.41
2018-12-29T20:50:26.855Z,101945.45
2018-12-29T20:52:55.461Z,101961.38
2018-12-29T20:55:24.177Z,101968.68
2018-12-29T20:57:52.892Z,101973.55
2018-12-29T21:00:21.245Z,101964.90
2018-12-29T21:02:50.311Z,101981.91
2018-12-29T21:05:18.664Z,101966.24
2018-12-29T21:07:47.007Z,101972.21
2018-12-29T21:10:15.320Z,101968.46
2018-12-29T21:12:43.709Z,101970.41
2018-12-29T21:15:12.127Z,101983.66
2018-12-29T21:17:40.689Z,101979.11
2018-12-29T21:20:09.050Z,101979.41
2018-12-29T21:22:37.408Z,101985.93
2018-12-29T21:25:05.694Z,101988.06
2018-12-29T21:27:33.955Z,101997.53
2018-12-29T21:30:02.363Z,101993.50
2018-12-29T21:32:30.780Z,102001.59
2018-12-29T21:34:59.122Z,101996.19
2018-12-29T21:37:27.432Z,101995.10
2018-12-29T21:39:55.732Z,101999.42
2018-12-29T21:42:23.971Z,102013.72
2018-12-29T21:44:54.031Z,102008.58
2018-12-29T21:47:22.302Z,102009.39
2018-12-29T21:49:50.587Z,102012.61
2018-12-29T21:52:18.981Z,102029.10
2018-12-29T21:54:47.325Z,102025.12
2018-12-29T21:57:15.587Z,102031.94
2018-12-29T21:59:44.284Z,102041.66
2018-12-29T22:02:12.548Z,102044.67
2018-12-29T22:04:40.829Z,102058.20
2018-12-29T22:07:09.125Z,102067.95
2018-12-29T22:09:37.420Z,102075.53
2018-12-29T22:12:05.735Z,102081.23
2018-12-29T22:14:34.006Z,102079.06
2018-12-29T22:17:02.285Z,102095.83
2018-12-29T22:19:30.563Z,102095.27
2018-12-29T22:21:58.908Z,102087.16
2018-12-29T22:24:27.165Z,102094.73
2018-12-29T22:26:55.446Z,102096.92
2018-12-29T22:29:23.740Z,102102.02
2018-12-29T22:31:52.072Z,102113.09
2018-12-29T22:34:20.332Z,102115.78
2018-12-29T22:36:48.597Z,102110.40
2018-12-29T22:39:16.897Z,102123.34
2018-12-29T22:41:45.239Z,102142.28
2018-12-29T22:44:13.652Z,102139.83
2018-12-29T22:46:41.985Z,102139.04
2018-12-29T22:49:10.250Z,102147.94
2018-12-29T22:51:38.614Z,102144.97
2018-12-29T22:54:06.882Z,102148.22
2018-12-29T22:56:35.238Z,102140.41
2018-12-29T22:59:03.492Z,102161.20
2018-12-29T23:01:31.767Z,102157.66
2018-12-29T23:04:00.064Z,102176.56
2018-12-29T23:06:28.376Z,102187.94
2018-12-29T23:08:57.055Z,102190.64
2018-12-29T23:11:25.355Z,102192.77
2018-12-29T23:13:53.629Z,102194.41
2018-12-29T23:16:22.246Z,102205.48
2018-12-29T23:18:50.756Z,102211.40
2018-12-29T23:21:19.024Z,102216.81
2018-12-29T23:23:47.376Z,102230.57
2018-12-29T23:26:15.628Z,102237.37
2018-12-29T23:28:43.940Z,102243.30
2018-12-29T23:31:12.247Z,102249.24
2018-12-29T23:33:40.507Z,102254.84
2018-12-29T23:36:08.886Z,102266.23
2018-12-29T23:38:37.257Z,102271.34
2018-12-29T23:41:05.559Z,102285.09
2018-12-29T23:43:34.632Z,102271.58
2018-12-29T23:46:02.895Z,102282.67
2018-12-29T23:48:31.342Z,102278.84
2018-12-29T23:51:05.550Z,102297.78
2018-12-29T23:53:29.621Z,102314.77
2018-12-29T23:55:58.181Z,102313.41
2018-12-29T23:58:26.449Z,102315.28
